sensor_id;sensor_type;location;lat;lon;timestamp;temperature;humidity
41720;DHT22;27405;53.316;-6.294;2023-07-20T00:01:16;15.60;99.90
41720;DHT22;27405;53.316;-6.294;2023-07-20T00:03:41;15.70;99.90
41720;DHT22;27405;53.316;-6.294;2023-07-20T00:06:07;15.60;99.90
41720;DHT22;27405;53.316;-6.294;2023-07-20T00:08:33;15.60;99.90
41720;DHT22;27405;53.316;-6.294;2023-07-20T00:10:59;15.60;99.90
41720;DHT22;27405;53.316;-6.294;2023-07-20T00:13:25;15.60;99.90
41720;DHT22;27405;53.316;-6.294;2023-07-20T00:15:51;15.60;99.90
41720;DHT22;27405;53.316;-6.294;2023-07-20T00:18:17;15.60;99.90
41720;DHT22;27405;53.316;-6.294;2023-07-20T00:20:46;15.60;99.90
41720;DHT22;27405;53.316;-6.294;2023-07-20T00:23:12;15.60;99.90
41720;DHT22;27405;53.316;-6.294;2023-07-20T00:25:38;15.50;99.90
41720;DHT22;27405;53.316;-6.294;2023-07-20T00:28:03;15.50;99.90
41720;DHT22;27405;53.316;-6.294;2023-07-20T00:30:29;15.50;99.90
41720;DHT22;27405;53.316;-6.294;2023-07-20T00:32:55;15.50;99.90
41720;DHT22;27405;53.316;-6.294;2023-07-20T00:35:20;15.50;99.90
41720;DHT22;27405;53.316;-6.294;2023-07-20T00:37:46;15.50;99.90
41720;DHT22;27405;53.316;-6.294;2023-07-20T00:40:12;15.50;99.90
41720;DHT22;27405;53.316;-6.294;2023-07-20T00:42:37;15.50;99.90
41720;DHT22;27405;53.316;-6.294;2023-07-20T00:45:04;15.50;99.90
41720;DHT22;27405;53.316;-6.294;2023-07-20T00:47:30;15.40;99.90
41720;DHT22;27405;53.316;-6.294;2023-07-20T00:49:56;15.50;99.90
41720;DHT22;27405;53.316;-6.294;2023-07-20T00:52:23;15.40;99.90
41720;DHT22;27405;53.316;-6.294;2023-07-20T00:54:49;15.40;99.90
41720;DHT22;27405;53.316;-6.294;2023-07-20T00:57:15;15.40;99.90
41720;DHT22;27405;53.316;-6.294;2023-07-20T00:59:42;15.40;99.90
41720;DHT22;27405;53.316;-6.294;2023-07-20T01:02:07;15.30;99.90
41720;DHT22;27405;53.316;-6.294;2023-07-20T01:04:33;15.30;99.90
41720;DHT22;27405;53.316;-6.294;2023-07-20T01:07:25;15.30;99.90
41720;DHT22;27405;53.316;-6.294;2023-07-20T01:10:03;15.30;99.90
41720;DHT22;27405;53.316;-6.294;2023-07-20T01:12:47;15.30;99.90
41720;DHT22;27405;53.316;-6.294;2023-07-20T01:15:12;15.30;99.90
41720;DHT22;27405;53.316;-6.294;2023-07-20T01:17:39;15.30;99.90
41720;DHT22;27405;53.316;-6.294;2023-07-20T01:20:06;15.20;99.90
41720;DHT22;27405;53.316;-6.294;2023-07-20T01:22:47;15.30;99.90
41720;DHT22;27405;53.316;-6.294;2023-07-20T01:30:55;15.30;99.90
41720;DHT22;27405;53.316;-6.294;2023-07-20T01:33:25;15.30;99.90
41720;DHT22;27405;53.316;-6.294;2023-07-20T01:35:56;15.20;99.90
41720;DHT22;27405;53.316;-6.294;2023-07-20T01:38:23;15.30;99.90
41720;DHT22;27405;53.316;-6.294;2023-07-20T01:40:49;15.20;99.90
41720;DHT22;27405;53.316;-6.294;2023-07-20T01:43:16;15.20;99.90
41720;DHT22;27405;53.316;-6.294;2023-07-20T01:45:41;15.20;99.90
41720;DHT22;27405;53.316;-6.294;2023-07-20T01:48:07;15.20;99.90
41720;DHT22;27405;53.316;-6.294;2023-07-20T01:50:33;15.10;99.90
41720;DHT22;27405;53.316;-6.294;2023-07-20T01:53:00;15.10;99.90
41720;DHT22;27405;53.316;-6.294;2023-07-20T01:55:26;15.10;99.90
41720;DHT22;27405;53.316;-6.294;2023-07-20T01:57:52;15.10;99.90
41720;DHT22;27405;53.316;-6.294;2023-07-20T02:00:18;15.10;99.90
41720;DHT22;27405;53.316;-6.294;2023-07-20T02:02:51;15.10;99.90
41720;DHT22;27405;53.316;-6.294;2023-07-20T02:05:17;15.10;99.90
41720;DHT22;27405;53.316;-6.294;2023-07-20T02:07:43;15.10;99.90
41720;DHT22;27405;53.316;-6.294;2023-07-20T02:10:09;15.10;99.90
41720;DHT22;27405;53.316;-6.294;2023-07-20T02:12:35;15.10;99.90
41720;DHT22;27405;53.316;-6.294;2023-07-20T02:15:02;15.10;99.90
41720;DHT22;27405;53.316;-6.294;2023-07-20T02:17:28;15.10;99.90
41720;DHT22;27405;53.316;-6.294;2023-07-20T02:19:55;15.00;99.90
41720;DHT22;27405;53.316;-6.294;2023-07-20T02:22:21;15.10;99.90
41720;DHT22;27405;53.316;-6.294;2023-07-20T02:24:47;15.00;99.90
41720;DHT22;27405;53.316;-6.294;2023-07-20T02:27:13;15.00;99.90
41720;DHT22;27405;53.316;-6.294;2023-07-20T02:29:40;15.00;99.90
41720;DHT22;27405;53.316;-6.294;2023-07-20T02:32:06;15.00;99.90
41720;DHT22;27405;53.316;-6.294;2023-07-20T02:34:32;15.00;99.90
41720;DHT22;27405;53.316;-6.294;2023-07-20T02:36:58;14.90;99.90
41720;DHT22;27405;53.316;-6.294;2023-07-20T02:39:27;14.90;99.90
41720;DHT22;27405;53.316;-6.294;2023-07-20T02:41:53;14.90;99.90
41720;DHT22;27405;53.316;-6.294;2023-07-20T02:44:19;14.90;99.90
41720;DHT22;27405;53.316;-6.294;2023-07-20T02:46:45;14.90;99.90
41720;DHT22;27405;53.316;-6.294;2023-07-20T02:49:11;14.80;99.90
41720;DHT22;27405;53.316;-6.294;2023-07-20T02:51:36;14.80;99.90
41720;DHT22;27405;53.316;-6.294;2023-07-20T02:54:02;14.80;99.90
41720;DHT22;27405;53.316;-6.294;2023-07-20T02:56:28;14.80;99.90
41720;DHT22;27405;53.316;-6.294;2023-07-20T02:58:54;14.70;99.90
41720;DHT22;27405;53.316;-6.294;2023-07-20T03:01:20;14.70;99.90
41720;DHT22;27405;53.316;-6.294;2023-07-20T03:03:46;14.70;99.90
41720;DHT22;27405;53.316;-6.294;2023-07-20T03:06:15;14.60;99.90
41720;DHT22;27405;53.316;-6.294;2023-07-20T03:08:44;14.60;99.90
41720;DHT22;27405;53.316;-6.294;2023-07-20T03:11:16;14.60;99.90
41720;DHT22;27405;53.316;-6.294;2023-07-20T03:13:42;14.50;99.90
41720;DHT22;27405;53.316;-6.294;2023-07-20T03:16:12;14.50;99.90
41720;DHT22;27405;53.316;-6.294;2023-07-20T03:18:43;14.50;99.90
41720;DHT22;27405;53.316;-6.294;2023-07-20T03:21:10;14.60;99.90
41720;DHT22;27405;53.316;-6.294;2023-07-20T03:23:41;14.60;99.90
41720;DHT22;27405;53.316;-6.294;2023-07-20T03:26:07;14.50;99.90
41720;DHT22;27405;53.316;-6.294;2023-07-20T03:28:36;14.60;99.90
41720;DHT22;27405;53.316;-6.294;2023-07-20T03:31:03;14.60;99.90
41720;DHT22;27405;53.316;-6.294;2023-07-20T03:33:29;14.60;99.90
41720;DHT22;27405;53.316;-6.294;2023-07-20T03:35:56;14.60;99.90
41720;DHT22;27405;53.316;-6.294;2023-07-20T03:38:22;14.60;99.90
41720;DHT22;27405;53.316;-6.294;2023-07-20T03:41:00;14.60;99.90
41720;DHT22;27405;53.316;-6.294;2023-07-20T03:43:27;14.60;99.90
41720;DHT22;27405;53.316;-6.294;2023-07-20T03:45:53;14.60;99.90
41720;DHT22;27405;53.316;-6.294;2023-07-20T03:48:23;14.60;99.90
41720;DHT22;27405;53.316;-6.294;2023-07-20T03:50:50;14.60;99.90
41720;DHT22;27405;53.316;-6.294;2023-07-20T03:53:16;14.60;99.90
41720;DHT22;27405;53.316;-6.294;2023-07-20T03:55:46;14.60;99.90
41720;DHT22;27405;53.316;-6.294;2023-07-20T03:58:12;14.60;99.90
41720;DHT22;27405;53.316;-6.294;2023-07-20T04:00:38;14.60;99.90
41720;DHT22;27405;53.316;-6.294;2023-07-20T04:03:05;14.60;99.90
41720;DHT22;27405;53.316;-6.294;2023-07-20T04:05:30;14.60;99.90
41720;DHT22;27405;53.316;-6.294;2023-07-20T04:07:56;14.60;99.90
41720;DHT22;27405;53.316;-6.294;2023-07-20T04:10:22;14.60;99.90
41720;DHT22;27405;53.316;-6.294;2023-07-20T04:12:48;14.60;99.90
41720;DHT22;27405;53.316;-6.294;2023-07-20T04:15:14;14.60;99.90
41720;DHT22;27405;53.316;-6.294;2023-07-20T04:17:40;14.60;99.90
41720;DHT22;27405;53.316;-6.294;2023-07-20T04:20:07;14.60;99.90
41720;DHT22;27405;53.316;-6.294;2023-07-20T04:22:33;14.60;99.90
41720;DHT22;27405;53.316;-6.294;2023-07-20T04:24:58;14.60;99.90
41720;DHT22;27405;53.316;-6.294;2023-07-20T04:27:24;14.60;99.90
41720;DHT22;27405;53.316;-6.294;2023-07-20T04:29:50;14.60;99.90
41720;DHT22;27405;53.316;-6.294;2023-07-20T04:32:16;14.60;99.90
41720;DHT22;27405;53.316;-6.294;2023-07-20T04:34:42;14.60;99.90
41720;DHT22;27405;53.316;-6.294;2023-07-20T04:37:08;14.60;99.90
41720;DHT22;27405;53.316;-6.294;2023-07-20T04:39:34;14.50;99.90
41720;DHT22;27405;53.316;-6.294;2023-07-20T04:41:59;14.50;99.90
41720;DHT22;27405;53.316;-6.294;2023-07-20T04:44:25;14.50;99.90
41720;DHT22;27405;53.316;-6.294;2023-07-20T04:46:51;14.40;99.90
41720;DHT22;27405;53.316;-6.294;2023-07-20T04:49:16;14.40;99.90
41720;DHT22;27405;53.316;-6.294;2023-07-20T04:51:42;14.40;99.90
41720;DHT22;27405;53.316;-6.294;2023-07-20T04:54:08;14.30;99.90
41720;DHT22;27405;53.316;-6.294;2023-07-20T04:56:34;14.30;99.90
41720;DHT22;27405;53.316;-6.294;2023-07-20T04:58:59;14.30;99.90
41720;DHT22;27405;53.316;-6.294;2023-07-20T05:01:25;14.20;99.90
41720;DHT22;27405;53.316;-6.294;2023-07-20T05:03:52;14.20;99.90
41720;DHT22;27405;53.316;-6.294;2023-07-20T05:06:18;14.20;99.90
41720;DHT22;27405;53.316;-6.294;2023-07-20T05:08:44;14.20;99.90
41720;DHT22;27405;53.316;-6.294;2023-07-20T05:11:10;14.30;99.90
41720;DHT22;27405;53.316;-6.294;2023-07-20T05:13:37;14.30;99.90
41720;DHT22;27405;53.316;-6.294;2023-07-20T05:16:03;14.30;99.90
41720;DHT22;27405;53.316;-6.294;2023-07-20T05:18:29;14.30;99.90
41720;DHT22;27405;53.316;-6.294;2023-07-20T05:20:54;14.30;99.90
41720;DHT22;27405;53.316;-6.294;2023-07-20T05:23:20;14.30;99.90
41720;DHT22;27405;53.316;-6.294;2023-07-20T05:25:47;14.40;99.90
41720;DHT22;27405;53.316;-6.294;2023-07-20T05:28:13;14.40;99.90
41720;DHT22;27405;53.316;-6.294;2023-07-20T05:30:40;14.50;99.90
41720;DHT22;27405;53.316;-6.294;2023-07-20T05:33:05;14.50;99.90
41720;DHT22;27405;53.316;-6.294;2023-07-20T05:35:31;14.50;99.90
41720;DHT22;27405;53.316;-6.294;2023-07-20T05:37:57;14.60;99.90
41720;DHT22;27405;53.316;-6.294;2023-07-20T05:40:22;14.60;99.90
41720;DHT22;27405;53.316;-6.294;2023-07-20T05:42:48;14.60;99.90
41720;DHT22;27405;53.316;-6.294;2023-07-20T05:45:17;14.60;99.90
41720;DHT22;27405;53.316;-6.294;2023-07-20T05:47:43;14.70;99.90
41720;DHT22;27405;53.316;-6.294;2023-07-20T05:50:09;14.70;99.90
41720;DHT22;27405;53.316;-6.294;2023-07-20T05:52:35;14.70;99.90
41720;DHT22;27405;53.316;-6.294;2023-07-20T05:55:01;14.80;99.90
41720;DHT22;27405;53.316;-6.294;2023-07-20T05:57:27;14.80;99.90
41720;DHT22;27405;53.316;-6.294;2023-07-20T05:59:52;14.80;99.90
41720;DHT22;27405;53.316;-6.294;2023-07-20T06:02:18;14.80;99.90
41720;DHT22;27405;53.316;-6.294;2023-07-20T06:04:44;14.90;99.90
41720;DHT22;27405;53.316;-6.294;2023-07-20T06:07:09;14.90;99.90
41720;DHT22;27405;53.316;-6.294;2023-07-20T06:09:35;15.00;99.90
41720;DHT22;27405;53.316;-6.294;2023-07-20T06:12:01;15.10;99.90
41720;DHT22;27405;53.316;-6.294;2023-07-20T06:14:27;15.10;99.90
41720;DHT22;27405;53.316;-6.294;2023-07-20T06:16:52;15.20;99.90
41720;DHT22;27405;53.316;-6.294;2023-07-20T06:19:18;15.20;99.90
41720;DHT22;27405;53.316;-6.294;2023-07-20T06:21:44;15.20;99.90
41720;DHT22;27405;53.316;-6.294;2023-07-20T06:24:09;15.20;99.90
41720;DHT22;27405;53.316;-6.294;2023-07-20T06:26:35;15.30;99.90
41720;DHT22;27405;53.316;-6.294;2023-07-20T06:29:07;15.30;99.90
41720;DHT22;27405;53.316;-6.294;2023-07-20T06:31:35;15.40;99.90
41720;DHT22;27405;53.316;-6.294;2023-07-20T06:34:00;15.40;99.90
41720;DHT22;27405;53.316;-6.294;2023-07-20T06:36:26;15.40;99.90
41720;DHT22;27405;53.316;-6.294;2023-07-20T06:38:52;15.40;99.90
41720;DHT22;27405;53.316;-6.294;2023-07-20T06:41:18;15.50;99.90
41720;DHT22;27405;53.316;-6.294;2023-07-20T06:43:44;15.50;99.90
41720;DHT22;27405;53.316;-6.294;2023-07-20T06:46:10;15.50;99.90
41720;DHT22;27405;53.316;-6.294;2023-07-20T06:48:36;15.50;99.90
41720;DHT22;27405;53.316;-6.294;2023-07-20T06:51:02;15.60;99.90
41720;DHT22;27405;53.316;-6.294;2023-07-20T06:53:28;15.60;99.90
41720;DHT22;27405;53.316;-6.294;2023-07-20T06:55:54;15.70;99.90
41720;DHT22;27405;53.316;-6.294;2023-07-20T06:58:25;15.70;99.90
41720;DHT22;27405;53.316;-6.294;2023-07-20T07:00:51;15.70;99.90
41720;DHT22;27405;53.316;-6.294;2023-07-20T07:03:17;15.70;99.90
41720;DHT22;27405;53.316;-6.294;2023-07-20T07:05:43;15.70;99.90
41720;DHT22;27405;53.316;-6.294;2023-07-20T07:08:10;15.70;99.90
41720;DHT22;27405;53.316;-6.294;2023-07-20T07:10:36;15.80;99.90
41720;DHT22;27405;53.316;-6.294;2023-07-20T07:13:03;15.80;99.90
41720;DHT22;27405;53.316;-6.294;2023-07-20T07:15:29;15.80;99.90
41720;DHT22;27405;53.316;-6.294;2023-07-20T07:17:55;15.80;99.90
41720;DHT22;27405;53.316;-6.294;2023-07-20T07:20:22;15.80;99.90
41720;DHT22;27405;53.316;-6.294;2023-07-20T07:22:50;15.80;99.90
41720;DHT22;27405;53.316;-6.294;2023-07-20T07:25:17;15.70;99.90
41720;DHT22;27405;53.316;-6.294;2023-07-20T07:27:43;15.70;99.90
41720;DHT22;27405;53.316;-6.294;2023-07-20T07:30:09;15.70;99.90
41720;DHT22;27405;53.316;-6.294;2023-07-20T07:32:35;15.70;99.90
41720;DHT22;27405;53.316;-6.294;2023-07-20T07:35:00;15.60;99.90
41720;DHT22;27405;53.316;-6.294;2023-07-20T07:37:26;15.60;99.90
41720;DHT22;27405;53.316;-6.294;2023-07-20T07:39:52;15.50;99.90
41720;DHT22;27405;53.316;-6.294;2023-07-20T07:42:17;15.50;99.90
41720;DHT22;27405;53.316;-6.294;2023-07-20T07:44:44;15.50;99.90
41720;DHT22;27405;53.316;-6.294;2023-07-20T07:47:10;15.50;99.90
41720;DHT22;27405;53.316;-6.294;2023-07-20T07:49:35;15.50;99.90
41720;DHT22;27405;53.316;-6.294;2023-07-20T07:52:01;15.50;99.90
41720;DHT22;27405;53.316;-6.294;2023-07-20T07:54:30;15.60;99.90
41720;DHT22;27405;53.316;-6.294;2023-07-20T07:56:56;15.60;99.90
41720;DHT22;27405;53.316;-6.294;2023-07-20T07:59:21;15.50;99.90
41720;DHT22;27405;53.316;-6.294;2023-07-20T08:01:48;15.50;99.90
41720;DHT22;27405;53.316;-6.294;2023-07-20T08:04:13;15.50;99.90
41720;DHT22;27405;53.316;-6.294;2023-07-20T08:06:39;15.60;99.90
41720;DHT22;27405;53.316;-6.294;2023-07-20T08:09:05;15.60;99.90
41720;DHT22;27405;53.316;-6.294;2023-07-20T08:11:31;15.60;99.90
41720;DHT22;27405;53.316;-6.294;2023-07-20T08:14:00;15.70;99.90
41720;DHT22;27405;53.316;-6.294;2023-07-20T08:16:25;15.70;99.90
41720;DHT22;27405;53.316;-6.294;2023-07-20T08:18:51;15.80;99.90
41720;DHT22;27405;53.316;-6.294;2023-07-20T08:21:17;15.80;99.90
41720;DHT22;27405;53.316;-6.294;2023-07-20T08:23:43;15.80;99.90
41720;DHT22;27405;53.316;-6.294;2023-07-20T08:26:08;15.90;99.90
41720;DHT22;27405;53.316;-6.294;2023-07-20T08:28:34;15.90;99.90
41720;DHT22;27405;53.316;-6.294;2023-07-20T08:31:00;16.00;99.90
41720;DHT22;27405;53.316;-6.294;2023-07-20T08:33:26;16.00;99.90
41720;DHT22;27405;53.316;-6.294;2023-07-20T08:35:54;16.00;99.90
41720;DHT22;27405;53.316;-6.294;2023-07-20T08:38:20;16.20;99.90
41720;DHT22;27405;53.316;-6.294;2023-07-20T08:40:46;16.20;99.90
41720;DHT22;27405;53.316;-6.294;2023-07-20T08:43:13;16.30;99.90
41720;DHT22;27405;53.316;-6.294;2023-07-20T08:45:40;16.30;99.90
41720;DHT22;27405;53.316;-6.294;2023-07-20T08:48:07;16.40;99.90
41720;DHT22;27405;53.316;-6.294;2023-07-20T08:50:34;16.40;99.90
41720;DHT22;27405;53.316;-6.294;2023-07-20T08:53:01;16.50;99.90
41720;DHT22;27405;53.316;-6.294;2023-07-20T08:55:27;16.60;99.90
41720;DHT22;27405;53.316;-6.294;2023-07-20T08:57:57;16.70;99.90
41720;DHT22;27405;53.316;-6.294;2023-07-20T09:00:24;16.80;99.90
41720;DHT22;27405;53.316;-6.294;2023-07-20T09:02:52;17.00;99.90
41720;DHT22;27405;53.316;-6.294;2023-07-20T09:05:19;17.10;99.90
41720;DHT22;27405;53.316;-6.294;2023-07-20T09:07:44;17.20;99.90
41720;DHT22;27405;53.316;-6.294;2023-07-20T09:10:11;17.30;99.90
41720;DHT22;27405;53.316;-6.294;2023-07-20T09:12:39;17.50;99.90
41720;DHT22;27405;53.316;-6.294;2023-07-20T09:15:06;17.60;99.90
41720;DHT22;27405;53.316;-6.294;2023-07-20T09:17:32;17.80;99.90
41720;DHT22;27405;53.316;-6.294;2023-07-20T09:19:58;18.00;99.90
41720;DHT22;27405;53.316;-6.294;2023-07-20T09:22:31;18.10;99.90
41720;DHT22;27405;53.316;-6.294;2023-07-20T09:24:58;18.40;99.90
41720;DHT22;27405;53.316;-6.294;2023-07-20T09:27:45;18.60;99.90
41720;DHT22;27405;53.316;-6.294;2023-07-20T09:30:12;18.80;99.50
41720;DHT22;27405;53.316;-6.294;2023-07-20T09:32:44;18.90;99.30
41720;DHT22;27405;53.316;-6.294;2023-07-20T09:35:17;18.90;98.80
41720;DHT22;27405;53.316;-6.294;2023-07-20T09:37:49;18.90;98.40
41720;DHT22;27405;53.316;-6.294;2023-07-20T09:40:18;19.00;98.20
41720;DHT22;27405;53.316;-6.294;2023-07-20T09:42:44;19.10;98.00
41720;DHT22;27405;53.316;-6.294;2023-07-20T09:45:10;19.00;97.50
41720;DHT22;27405;53.316;-6.294;2023-07-20T09:47:36;19.00;97.10
41720;DHT22;27405;53.316;-6.294;2023-07-20T09:50:04;18.90;97.00
41720;DHT22;27405;53.316;-6.294;2023-07-20T09:52:30;18.80;97.00
41720;DHT22;27405;53.316;-6.294;2023-07-20T09:54:57;18.70;97.10
41720;DHT22;27405;53.316;-6.294;2023-07-20T09:57:23;18.50;98.30
41720;DHT22;27405;53.316;-6.294;2023-07-20T09:59:51;18.00;99.10
41720;DHT22;27405;53.316;-6.294;2023-07-20T10:02:23;17.50;99.60
41720;DHT22;27405;53.316;-6.294;2023-07-20T10:04:53;17.10;99.90
41720;DHT22;27405;53.316;-6.294;2023-07-20T10:07:19;17.00;99.90
41720;DHT22;27405;53.316;-6.294;2023-07-20T10:09:48;17.10;99.90
41720;DHT22;27405;53.316;-6.294;2023-07-20T10:12:16;17.10;99.90
41720;DHT22;27405;53.316;-6.294;2023-07-20T10:14:48;17.20;99.90
41720;DHT22;27405;53.316;-6.294;2023-07-20T10:17:17;17.20;99.90
41720;DHT22;27405;53.316;-6.294;2023-07-20T10:19:47;17.30;99.90
41720;DHT22;27405;53.316;-6.294;2023-07-20T10:22:19;17.30;99.90
41720;DHT22;27405;53.316;-6.294;2023-07-20T10:24:46;17.50;99.90
41720;DHT22;27405;53.316;-6.294;2023-07-20T10:27:13;17.60;99.90
41720;DHT22;27405;53.316;-6.294;2023-07-20T10:29:40;17.70;99.90
41720;DHT22;27405;53.316;-6.294;2023-07-20T10:32:07;17.80;99.90
41720;DHT22;27405;53.316;-6.294;2023-07-20T10:34:33;17.90;99.90
41720;DHT22;27405;53.316;-6.294;2023-07-20T10:36:59;17.90;99.90
41720;DHT22;27405;53.316;-6.294;2023-07-20T10:39:30;17.90;99.90
41720;DHT22;27405;53.316;-6.294;2023-07-20T10:44:27;18.20;99.90
41720;DHT22;27405;53.316;-6.294;2023-07-20T10:46:59;18.30;99.90
41720;DHT22;27405;53.316;-6.294;2023-07-20T10:49:26;18.40;99.90
41720;DHT22;27405;53.316;-6.294;2023-07-20T10:51:57;18.40;99.70
41720;DHT22;27405;53.316;-6.294;2023-07-20T10:56:55;18.30;99.00
41720;DHT22;27405;53.316;-6.294;2023-07-20T10:59:41;18.10;99.40
41720;DHT22;27405;53.316;-6.294;2023-07-20T11:02:07;17.90;99.90
41720;DHT22;27405;53.316;-6.294;2023-07-20T11:04:41;17.70;99.90
41720;DHT22;27405;53.316;-6.294;2023-07-20T11:07:07;17.50;99.90
41720;DHT22;27405;53.316;-6.294;2023-07-20T11:09:38;17.50;99.90
41720;DHT22;27405;53.316;-6.294;2023-07-20T11:12:10;17.40;99.90
41720;DHT22;27405;53.316;-6.294;2023-07-20T11:14:43;17.40;99.90
41720;DHT22;27405;53.316;-6.294;2023-07-20T11:17:18;17.40;99.90
41720;DHT22;27405;53.316;-6.294;2023-07-20T11:19:48;17.40;99.90
41720;DHT22;27405;53.316;-6.294;2023-07-20T11:22:16;17.30;99.90
41720;DHT22;27405;53.316;-6.294;2023-07-20T11:24:42;17.40;99.90
41720;DHT22;27405;53.316;-6.294;2023-07-20T11:27:08;17.60;99.90
41720;DHT22;27405;53.316;-6.294;2023-07-20T11:29:35;17.80;99.90
41720;DHT22;27405;53.316;-6.294;2023-07-20T11:32:02;18.00;99.90
41720;DHT22;27405;53.316;-6.294;2023-07-20T11:34:30;18.00;99.90
41720;DHT22;27405;53.316;-6.294;2023-07-20T11:36:57;18.10;99.90
41720;DHT22;27405;53.316;-6.294;2023-07-20T11:39:23;18.10;99.90
41720;DHT22;27405;53.316;-6.294;2023-07-20T11:41:52;18.10;99.50
41720;DHT22;27405;53.316;-6.294;2023-07-20T11:44:21;18.00;99.60
41720;DHT22;27405;53.316;-6.294;2023-07-20T11:47:07;17.90;99.30
41720;DHT22;27405;53.316;-6.294;2023-07-20T11:49:43;17.80;98.80
41720;DHT22;27405;53.316;-6.294;2023-07-20T11:52:15;17.80;98.80
41720;DHT22;27405;53.316;-6.294;2023-07-20T11:54:41;17.90;98.60
41720;DHT22;27405;53.316;-6.294;2023-07-20T11:57:16;18.10;97.90
41720;DHT22;27405;53.316;-6.294;2023-07-20T11:59:53;18.20;97.50
41720;DHT22;27405;53.316;-6.294;2023-07-20T12:02:21;18.30;96.70
41720;DHT22;27405;53.316;-6.294;2023-07-20T12:04:48;18.40;96.20
41720;DHT22;27405;53.316;-6.294;2023-07-20T12:07:14;18.50;96.00
41720;DHT22;27405;53.316;-6.294;2023-07-20T12:09:39;18.60;95.90
41720;DHT22;27405;53.316;-6.294;2023-07-20T12:12:11;18.90;95.70
41720;DHT22;27405;53.316;-6.294;2023-07-20T12:14:40;19.20;95.30
41720;DHT22;27405;53.316;-6.294;2023-07-20T12:17:08;19.60;95.20
41720;DHT22;27405;53.316;-6.294;2023-07-20T12:19:38;19.80;94.50
41720;DHT22;27405;53.316;-6.294;2023-07-20T12:22:04;19.90;93.60
41720;DHT22;27405;53.316;-6.294;2023-07-20T12:24:31;19.90;93.40
41720;DHT22;27405;53.316;-6.294;2023-07-20T12:26:57;19.70;93.40
41720;DHT22;27405;53.316;-6.294;2023-07-20T12:29:23;19.70;93.30
41720;DHT22;27405;53.316;-6.294;2023-07-20T12:31:49;19.60;93.20
41720;DHT22;27405;53.316;-6.294;2023-07-20T12:34:15;19.60;93.20
41720;DHT22;27405;53.316;-6.294;2023-07-20T12:36:41;19.60;93.10
41720;DHT22;27405;53.316;-6.294;2023-07-20T12:39:06;19.60;92.70
41720;DHT22;27405;53.316;-6.294;2023-07-20T12:41:32;19.60;92.70
41720;DHT22;27405;53.316;-6.294;2023-07-20T12:44:00;19.70;92.40
41720;DHT22;27405;53.316;-6.294;2023-07-20T12:46:26;19.70;92.20
41720;DHT22;27405;53.316;-6.294;2023-07-20T12:48:55;19.90;92.20
41720;DHT22;27405;53.316;-6.294;2023-07-20T12:51:21;20.00;92.10
41720;DHT22;27405;53.316;-6.294;2023-07-20T12:53:46;20.20;92.00
41720;DHT22;27405;53.316;-6.294;2023-07-20T12:56:12;20.30;91.40
41720;DHT22;27405;53.316;-6.294;2023-07-20T12:58:38;20.30;90.90
41720;DHT22;27405;53.316;-6.294;2023-07-20T13:01:04;20.30;90.70
41720;DHT22;27405;53.316;-6.294;2023-07-20T13:03:29;20.30;90.50
41720;DHT22;27405;53.316;-6.294;2023-07-20T13:05:55;20.30;90.40
41720;DHT22;27405;53.316;-6.294;2023-07-20T13:08:21;20.40;90.00
41720;DHT22;27405;53.316;-6.294;2023-07-20T13:10:50;20.30;89.40
41720;DHT22;27405;53.316;-6.294;2023-07-20T13:13:17;20.30;88.90
41720;DHT22;27405;53.316;-6.294;2023-07-20T13:15:45;20.20;88.80
41720;DHT22;27405;53.316;-6.294;2023-07-20T13:18:11;20.00;88.20
41720;DHT22;27405;53.316;-6.294;2023-07-20T13:20:37;19.90;88.00
41720;DHT22;27405;53.316;-6.294;2023-07-20T13:23:04;19.70;88.30
41720;DHT22;27405;53.316;-6.294;2023-07-20T13:25:29;19.70;88.60
41720;DHT22;27405;53.316;-6.294;2023-07-20T13:27:55;19.60;88.60
41720;DHT22;27405;53.316;-6.294;2023-07-20T13:30:21;19.50;88.20
41720;DHT22;27405;53.316;-6.294;2023-07-20T13:32:47;19.50;88.50
41720;DHT22;27405;53.316;-6.294;2023-07-20T13:35:13;19.50;88.60
41720;DHT22;27405;53.316;-6.294;2023-07-20T13:37:39;19.60;89.10
41720;DHT22;27405;53.316;-6.294;2023-07-20T13:40:05;19.70;89.20
41720;DHT22;27405;53.316;-6.294;2023-07-20T13:42:32;19.70;89.20
41720;DHT22;27405;53.316;-6.294;2023-07-20T13:44:57;19.60;89.10
41720;DHT22;27405;53.316;-6.294;2023-07-20T13:47:23;19.50;89.40
41720;DHT22;27405;53.316;-6.294;2023-07-20T13:49:49;19.40;89.70
41720;DHT22;27405;53.316;-6.294;2023-07-20T13:52:15;19.30;89.80
41720;DHT22;27405;53.316;-6.294;2023-07-20T13:54:41;19.20;90.20
41720;DHT22;27405;53.316;-6.294;2023-07-20T13:57:07;19.00;90.60
41720;DHT22;27405;53.316;-6.294;2023-07-20T13:59:32;18.80;90.90
41720;DHT22;27405;53.316;-6.294;2023-07-20T14:01:58;18.60;91.30
41720;DHT22;27405;53.316;-6.294;2023-07-20T14:04:23;18.40;91.80
41720;DHT22;27405;53.316;-6.294;2023-07-20T14:06:50;18.30;92.40
41720;DHT22;27405;53.316;-6.294;2023-07-20T14:09:15;18.10;92.80
41720;DHT22;27405;53.316;-6.294;2023-07-20T14:11:41;18.00;93.10
41720;DHT22;27405;53.316;-6.294;2023-07-20T14:14:07;17.90;93.20
41720;DHT22;27405;53.316;-6.294;2023-07-20T14:16:32;17.90;93.40
41720;DHT22;27405;53.316;-6.294;2023-07-20T14:18:58;17.90;93.60
41720;DHT22;27405;53.316;-6.294;2023-07-20T14:21:24;18.00;93.60
41720;DHT22;27405;53.316;-6.294;2023-07-20T14:23:51;18.10;93.60
41720;DHT22;27405;53.316;-6.294;2023-07-20T14:26:18;18.20;93.40
41720;DHT22;27405;53.316;-6.294;2023-07-20T14:28:44;18.30;93.30
41720;DHT22;27405;53.316;-6.294;2023-07-20T14:31:10;18.40;93.20
41720;DHT22;27405;53.316;-6.294;2023-07-20T14:33:35;18.50;93.00
41720;DHT22;27405;53.316;-6.294;2023-07-20T14:36:02;18.70;92.80
41720;DHT22;27405;53.316;-6.294;2023-07-20T14:38:28;18.70;92.90
41720;DHT22;27405;53.316;-6.294;2023-07-20T14:40:54;18.90;93.00
41720;DHT22;27405;53.316;-6.294;2023-07-20T14:43:20;19.00;92.50
41720;DHT22;27405;53.316;-6.294;2023-07-20T14:45:46;19.20;92.20
41720;DHT22;27405;53.316;-6.294;2023-07-20T14:48:12;19.20;92.00
41720;DHT22;27405;53.316;-6.294;2023-07-20T14:50:37;19.40;91.70
41720;DHT22;27405;53.316;-6.294;2023-07-20T14:53:03;19.60;91.30
41720;DHT22;27405;53.316;-6.294;2023-07-20T14:55:29;19.70;91.30
41720;DHT22;27405;53.316;-6.294;2023-07-20T14:57:54;20.00;91.00
41720;DHT22;27405;53.316;-6.294;2023-07-20T15:00:20;20.30;90.50
41720;DHT22;27405;53.316;-6.294;2023-07-20T15:02:46;20.60;90.20
41720;DHT22;27405;53.316;-6.294;2023-07-20T15:05:12;21.10;90.00
41720;DHT22;27405;53.316;-6.294;2023-07-20T15:07:45;21.80;89.10
41720;DHT22;27405;53.316;-6.294;2023-07-20T15:10:11;22.60;87.20
41720;DHT22;27405;53.316;-6.294;2023-07-20T15:12:36;23.20;85.10
41720;DHT22;27405;53.316;-6.294;2023-07-20T15:15:06;23.80;84.10
41720;DHT22;27405;53.316;-6.294;2023-07-20T15:17:32;24.50;82.30
41720;DHT22;27405;53.316;-6.294;2023-07-20T15:19:58;24.90;80.40
41720;DHT22;27405;53.316;-6.294;2023-07-20T15:22:24;25.20;79.00
41720;DHT22;27405;53.316;-6.294;2023-07-20T15:24:50;25.60;77.70